createdAt,value
2023-04-27T00:02:33.021Z,100.00
2023-04-27T00:05:20.405Z,100.00
2023-04-27T00:08:08.105Z,100.00
2023-04-27T00:10:56.266Z,100.00
2023-04-27T00:13:43.313Z,100.00
2023-04-27T00:16:30.614Z,100.00
2023-04-27T00:19:17.717Z,100.00
2023-04-27T00:22:04.857Z,100.00
2023-04-27T00:24:52.022Z,100.00
2023-04-27T00:27:39.047Z,100.00
2023-04-27T00:30:26.123Z,100.00
2023-04-27T00:33:13.218Z,100.00
2023-04-27T00:36:04.350Z,100.00
2023-04-27T00:38:51.407Z,100.00
2023-04-27T00:41:42.090Z,100.00
2023-04-27T00:44:29.149Z,100.00
2023-04-27T00:47:17.477Z,100.00
2023-04-27T00:50:08.647Z,100.00
2023-04-27T00:52:56.816Z,100.00
2023-04-27T00:55:43.915Z,100.00
2023-04-27T00:58:30.983Z,100.00
2023-04-27T01:01:20.789Z,100.00
2023-04-27T01:04:08.120Z,100.00
2023-04-27T01:06:55.391Z,100.00
2023-04-27T01:09:42.922Z,100.00
2023-04-27T01:12:29.924Z,100.00
2023-04-27T01:15:16.970Z,100.00
2023-04-27T01:18:04.564Z,100.00
2023-04-27T01:20:51.700Z,100.00
2023-04-27T01:23:38.814Z,100.00
2023-04-27T01:26:26.185Z,100.00
2023-04-27T01:29:13.674Z,100.00
2023-04-27T01:32:00.951Z,100.00
2023-04-27T01:34:47.985Z,100.00
2023-04-27T01:37:35.835Z,100.00
2023-04-27T01:40:22.870Z,100.00
2023-04-27T01:43:09.930Z,100.00
2023-04-27T01:45:57.485Z,100.00
2023-04-27T01:48:44.581Z,100.00
2023-04-27T01:51:33.146Z,100.00
2023-04-27T01:54:20.171Z,100.00
2023-04-27T01:57:07.146Z,100.00
2023-04-27T01:59:54.202Z,100.00
2023-04-27T02:02:41.446Z,100.00
2023-04-27T02:05:28.695Z,100.00
2023-04-27T02:08:15.717Z,100.00
2023-04-27T02:11:03.274Z,100.00
2023-04-27T02:13:50.329Z,100.00
2023-04-27T02:16:37.690Z,100.00
2023-04-27T02:19:25.026Z,100.00
2023-04-27T02:22:12.485Z,100.00
2023-04-27T02:25:00.603Z,100.00
2023-04-27T02:27:47.637Z,100.00
2023-04-27T02:30:35.149Z,100.00
2023-04-27T02:33:22.273Z,100.00
2023-04-27T02:36:09.440Z,100.00
2023-04-27T02:38:56.712Z,100.00
2023-04-27T02:41:43.865Z,100.00
2023-04-27T02:44:31.009Z,100.00
2023-04-27T02:47:18.185Z,100.00
2023-04-27T02:50:05.854Z,100.00
2023-04-27T02:52:52.901Z,100.00
2023-04-27T02:55:51.038Z,100.00
2023-04-27T02:58:38.068Z,100.00
2023-04-27T03:01:25.240Z,100.00
2023-04-27T03:04:14.325Z,100.00
2023-04-27T03:07:01.969Z,100.00
2023-04-27T03:09:49.074Z,100.00
2023-04-27T03:12:36.209Z,100.00
2023-04-27T03:15:23.286Z,100.00
2023-04-27T03:18:10.351Z,100.00
2023-04-27T03:21:08.651Z,100.00
2023-04-27T03:23:55.844Z,100.00
2023-04-27T03:26:42.964Z,100.00
2023-04-27T03:29:30.014Z,100.00
2023-04-27T03:32:17.056Z,100.00
2023-04-27T03:35:04.711Z,100.00
2023-04-27T03:37:51.766Z,100.00
2023-04-27T03:40:38.866Z,100.00
2023-04-27T03:43:26.607Z,100.00
2023-04-27T03:46:13.754Z,100.00
2023-04-27T03:49:00.992Z,100.00
2023-04-27T03:51:48.064Z,100.00
2023-04-27T03:54:35.100Z,100.00
2023-04-27T03:57:22.247Z,100.00
2023-04-27T04:00:12.268Z,100.00
2023-04-27T04:02:59.455Z,100.00
2023-04-27T04:05:47.341Z,100.00
2023-04-27T04:08:34.663Z,100.00
2023-04-27T04:11:22.592Z,100.00
2023-04-27T04:14:09.662Z,100.00
2023-04-27T04:16:56.720Z,100.00
2023-04-27T04:19:43.841Z,100.00
2023-04-27T04:22:30.916Z,100.00
2023-04-27T04:25:18.170Z,100.00
2023-04-27T04:28:05.502Z,100.00
2023-04-27T04:30:52.638Z,100.00
2023-04-27T04:33:39.754Z,100.00
2023-04-27T04:36:31.289Z,100.00
2023-04-27T04:39:22.360Z,100.00
2023-04-27T04:42:09.465Z,100.00
2023-04-27T04:44:57.133Z,100.00
2023-04-27T04:47:44.244Z,100.00
2023-04-27T04:50:31.270Z,100.00
2023-04-27T04:53:18.474Z,100.00
2023-04-27T04:56:12.920Z,100.00
2023-04-27T04:58:59.960Z,100.00
2023-04-27T05:01:46.991Z,100.00
2023-04-27T05:04:34.228Z,100.00
2023-04-27T05:07:24.740Z,100.00
2023-04-27T05:10:12.465Z,100.00
2023-04-27T05:12:59.504Z,100.00
2023-04-27T05:15:46.810Z,100.00
2023-04-27T05:18:36.676Z,100.00
2023-04-27T05:21:23.790Z,100.00
2023-04-27T05:24:11.369Z,100.00
2023-04-27T05:26:59.732Z,100.00
2023-04-27T05:29:48.472Z,100.00
2023-04-27T05:32:37.538Z,100.00
2023-04-27T05:35:24.785Z,100.00
2023-04-27T05:38:12.048Z,100.00
2023-04-27T05:40:59.715Z,100.00
2023-04-27T05:43:46.876Z,100.00
2023-04-27T05:46:35.394Z,100.00
2023-04-27T05:49:24.275Z,100.00
2023-04-27T05:52:11.282Z,100.00
2023-04-27T05:54:58.888Z,100.00
2023-04-27T05:57:47.731Z,100.00
2023-04-27T06:00:39.072Z,100.00
2023-04-27T06:03:26.394Z,100.00
2023-04-27T06:06:13.601Z,100.00
2023-04-27T06:09:00.726Z,100.00
2023-04-27T06:11:47.806Z,100.00
2023-04-27T06:14:36.616Z,100.00
2023-04-27T06:17:23.972Z,100.00
2023-04-27T06:20:12.092Z,100.00
2023-04-27T06:23:00.623Z,100.00
2023-04-27T06:25:47.697Z,100.00
2023-04-27T06:28:34.816Z,100.00
2023-04-27T06:31:22.007Z,100.00
2023-04-27T06:34:09.196Z,100.00
2023-04-27T06:36:56.517Z,100.00
2023-04-27T06:39:44.927Z,100.00
2023-04-27T06:42:32.126Z,100.00
2023-04-27T06:45:19.455Z,100.00
2023-04-27T06:48:06.608Z,100.00
2023-04-27T06:50:53.855Z,100.00
2023-04-27T06:53:41.073Z,100.00
2023-04-27T06:56:28.173Z,100.00
2023-04-27T06:59:15.434Z,100.00
2023-04-27T07:02:02.784Z,100.00
2023-04-27T07:04:50.401Z,100.00
2023-04-27T07:07:37.529Z,100.00
2023-04-27T07:10:24.587Z,100.00
2023-04-27T07:13:12.646Z,100.00
2023-04-27T07:16:01.395Z,95.59
2023-04-27T07:18:48.539Z,99.63
2023-04-27T07:21:35.544Z,100.00
2023-04-27T07:24:22.656Z,96.38
2023-04-27T07:27:10.384Z,94.43
2023-04-27T07:29:58.118Z,86.22
2023-04-27T07:32:45.790Z,88.81
2023-04-27T07:35:33.154Z,96.15
2023-04-27T07:38:20.999Z,97.14
2023-04-27T07:41:09.202Z,96.82
2023-04-27T07:43:58.053Z,90.33
2023-04-27T07:46:47.444Z,83.83
2023-04-27T07:49:35.636Z,83.43
2023-04-27T07:52:22.761Z,77.26
2023-04-27T07:55:10.155Z,68.61
2023-04-27T07:57:57.510Z,68.80
2023-04-27T08:00:44.635Z,66.93
2023-04-27T08:03:32.361Z,65.45
2023-04-27T08:06:20.143Z,66.56
2023-04-27T08:09:08.212Z,60.71
2023-04-27T08:11:55.302Z,59.27
2023-04-27T08:14:42.668Z,55.64
2023-04-27T08:17:29.766Z,57.88
2023-04-27T08:20:16.933Z,55.97
2023-04-27T08:23:03.971Z,49.83
2023-04-27T08:25:51.111Z,50.42
2023-04-27T08:28:38.148Z,52.49
2023-04-27T08:31:26.225Z,48.57
2023-04-27T08:34:13.371Z,51.27
2023-04-27T08:37:00.750Z,50.91
2023-04-27T08:39:49.111Z,52.79
2023-04-27T08:42:36.421Z,51.16
2023-04-27T08:45:25.072Z,52.54
2023-04-27T08:48:12.205Z,51.20
2023-04-27T08:51:00.916Z,51.45
2023-04-27T08:53:52.905Z,48.01
2023-04-27T08:56:40.061Z,48.16
2023-04-27T08:59:27.261Z,49.82
2023-04-27T09:02:21.367Z,48.58
2023-04-27T09:05:16.207Z,56.66
2023-04-27T09:08:08.015Z,47.58
2023-04-27T09:10:55.982Z,47.28
2023-04-27T09:13:47.326Z,47.10
2023-04-27T09:16:34.444Z,46.81
2023-04-27T09:19:27.264Z,46.18
2023-04-27T09:22:15.714Z,48.41
2023-04-27T09:25:02.996Z,45.65
2023-04-27T09:27:50.110Z,47.85
2023-04-27T09:30:37.954Z,45.85
2023-04-27T09:33:29.989Z,47.64
2023-04-27T09:36:17.123Z,44.98
2023-04-27T09:39:05.290Z,43.81
2023-04-27T09:41:52.469Z,44.61
2023-04-27T09:44:39.546Z,44.94
2023-04-27T09:47:28.811Z,42.00
2023-04-27T09:50:16.347Z,40.83
2023-04-27T09:53:06.900Z,41.96
2023-04-27T09:56:06.140Z,47.58
2023-04-27T09:59:30.814Z,41.65
2023-04-27T10:02:25.381Z,42.20
2023-04-27T10:05:22.499Z,40.49
2023-04-27T10:08:11.887Z,41.46
2023-04-27T10:10:58.975Z,42.53
2023-04-27T10:13:54.884Z,40.73
2023-04-27T10:16:56.893Z,38.28
2023-04-27T10:19:57.847Z,40.89
2023-04-27T10:22:52.759Z,37.91
2023-04-27T10:25:41.732Z,36.64
2023-04-27T10:28:39.196Z,34.16
2023-04-27T10:31:30.180Z,33.71
2023-04-27T10:34:20.695Z,34.85
2023-04-27T10:37:12.626Z,33.74
2023-04-27T10:40:08.255Z,33.98
2023-04-27T10:42:55.369Z,33.85
2023-04-27T10:45:43.576Z,32.63
2023-04-27T10:48:30.668Z,32.72
2023-04-27T10:51:18.141Z,32.13
2023-04-27T10:54:05.419Z,34.31
2023-04-27T10:56:52.545Z,33.86
2023-04-27T10:59:55.568Z,32.62
2023-04-27T11:02:42.775Z,31.15
2023-04-27T11:05:33.404Z,32.80
2023-04-27T11:08:21.560Z,33.93
2023-04-27T11:11:16.552Z,36.29
2023-04-27T11:14:03.925Z,39.04
2023-04-27T11:16:51.316Z,38.63
2023-04-27T11:19:48.063Z,38.75
2023-04-27T11:22:45.016Z,42.56
2023-04-27T11:25:32.369Z,40.42
2023-04-27T11:28:20.660Z,39.98
2023-04-27T11:31:08.141Z,38.18
2023-04-27T11:33:55.982Z,35.64
2023-04-27T11:36:43.458Z,39.29
2023-04-27T11:39:38.190Z,40.17
2023-04-27T11:42:28.502Z,37.85
2023-04-27T11:45:15.740Z,38.28
2023-04-27T11:48:03.957Z,38.88
2023-04-27T11:50:53.432Z,39.11
2023-04-27T11:53:40.652Z,39.99
2023-04-27T11:56:34.619Z,36.08
2023-04-27T11:59:26.550Z,37.34
2023-04-27T12:02:13.637Z,35.83
2023-04-27T12:05:01.129Z,37.00
2023-04-27T12:07:48.440Z,36.72
2023-04-27T12:10:35.709Z,40.18
2023-04-27T12:13:22.742Z,36.44
2023-04-27T12:16:09.761Z,35.88
2023-04-27T12:18:56.994Z,34.09
2023-04-27T12:21:44.485Z,33.54
2023-04-27T12:24:32.401Z,33.28
2023-04-27T12:27:19.514Z,34.12
2023-04-27T12:30:07.863Z,35.49
2023-04-27T12:32:55.053Z,33.79
2023-04-27T12:35:42.404Z,35.57
2023-04-27T12:38:29.636Z,34.26
2023-04-27T12:41:16.716Z,36.61
2023-04-27T12:44:04.919Z,35.05
2023-04-27T12:46:52.211Z,35.11
2023-04-27T12:49:40.527Z,34.20
2023-04-27T12:52:27.771Z,34.22
2023-04-27T12:55:28.846Z,32.24
2023-04-27T12:58:19.082Z,31.48
2023-04-27T13:01:12.443Z,33.43
2023-04-27T13:04:01.834Z,30.90
2023-04-27T13:06:50.241Z,31.64
2023-04-27T13:09:37.522Z,32.45
2023-04-27T13:12:24.907Z,32.40
2023-04-27T13:15:12.111Z,33.20
2023-04-27T13:17:59.757Z,32.11
2023-04-27T13:20:48.659Z,34.14
2023-04-27T13:23:35.804Z,33.85
2023-04-27T13:26:24.380Z,33.44
2023-04-27T13:29:11.460Z,33.24
2023-04-27T13:31:58.688Z,34.53
2023-04-27T13:34:45.832Z,32.34
2023-04-27T13:37:32.904Z,33.45
2023-04-27T13:40:22.829Z,36.21
2023-04-27T13:43:09.892Z,37.63
2023-04-27T13:46:00.776Z,34.01
2023-04-27T13:48:48.435Z,33.74
2023-04-27T13:51:36.067Z,33.78
2023-04-27T13:54:23.217Z,33.78
2023-04-27T13:57:10.305Z,33.50
2023-04-27T13:59:57.430Z,33.49
2023-04-27T14:02:44.513Z,33.36
2023-04-27T14:05:32.253Z,33.54
2023-04-27T14:08:19.433Z,34.05
2023-04-27T14:12:07.527Z,34.01
2023-04-27T14:32:28.203Z,41.01
2023-04-27T14:59:46.729Z,35.54
2023-04-27T15:51:49.521Z,35.44
2023-04-27T15:58:43.417Z,34.90
2023-04-27T16:01:27.581Z,34.98
2023-04-27T16:03:57.757Z,34.23
2023-04-27T16:06:42.165Z,36.98
2023-04-27T16:09:11.992Z,39.38
2023-04-27T16:11:44.162Z,40.19
2023-04-27T16:14:22.305Z,41.00
2023-04-27T16:16:57.307Z,39.59
2023-04-27T16:19:26.342Z,40.25
2023-04-27T16:22:11.510Z,40.08
2023-04-27T16:24:47.984Z,38.39
2023-04-27T16:27:25.749Z,37.22
2023-04-27T16:30:01.734Z,41.20
2023-04-27T16:32:38.830Z,42.81
2023-04-27T16:35:11.975Z,42.45
2023-04-27T16:38:03.053Z,41.65
2023-04-27T16:40:38.940Z,41.87
2023-04-27T16:43:09.702Z,41.16
2023-04-27T16:45:37.227Z,42.02
2023-04-27T16:48:17.348Z,43.39
2023-04-27T16:50:58.447Z,43.39
2023-04-27T16:53:28.354Z,43.27
2023-04-27T16:55:59.680Z,41.91
2023-04-27T16:58:49.012Z,41.97
2023-04-27T17:01:24.468Z,47.99
2023-04-27T17:04:14.291Z,47.54
2023-04-27T17:28:26.772Z,61.50
2023-04-27T17:30:53.805Z,64.12
2023-04-27T17:33:20.687Z,66.54
2023-04-27T17:35:47.481Z,69.64
2023-04-27T17:38:15.182Z,76.44
2023-04-27T17:40:42.896Z,76.88
2023-04-27T17:43:11.235Z,89.18
2023-04-27T17:45:38.637Z,86.54
2023-04-27T17:48:07.099Z,92.84
2023-04-27T17:50:36.136Z,90.65
2023-04-27T17:53:03.086Z,94.14
2023-04-27T17:55:29.912Z,100.00
2023-04-27T17:57:57.234Z,100.00
2023-04-27T18:00:24.322Z,100.00
2023-04-27T18:02:51.353Z,100.00
2023-04-27T18:05:18.336Z,100.00
2023-04-27T18:07:46.710Z,100.00
2023-04-27T18:10:13.573Z,100.00
2023-04-27T18:12:40.462Z,100.00
2023-04-27T18:15:09.707Z,100.00
2023-04-27T18:17:36.793Z,100.00
2023-04-27T18:20:09.877Z,100.00
2023-04-27T18:22:40.288Z,100.00
2023-04-27T18:25:09.195Z,100.00
2023-04-27T18:27:38.102Z,100.00
2023-04-27T18:30:07.644Z,100.00
2023-04-27T18:32:35.068Z,100.00
2023-04-27T18:35:02.676Z,100.00
2023-04-27T18:37:29.867Z,100.00
2023-04-27T18:39:56.620Z,100.00
2023-04-27T18:42:24.101Z,100.00
2023-04-27T18:44:55.159Z,100.00
2023-04-27T18:47:22.133Z,100.00
2023-04-27T18:49:52.120Z,100.00
2023-04-27T18:52:18.785Z,100.00
2023-04-27T18:54:45.692Z,100.00
2023-04-27T18:57:13.087Z,100.00
2023-04-27T18:59:40.146Z,100.00
2023-04-27T19:02:09.378Z,100.00
2023-04-27T19:04:36.660Z,100.00
2023-04-27T19:07:03.795Z,100.00
2023-04-27T19:09:30.717Z,100.00
2023-04-27T19:12:02.871Z,100.00
2023-04-27T19:14:31.520Z,100.00
2023-04-27T19:16:58.404Z,100.00
2023-04-27T19:19:27.176Z,100.00
2023-04-27T19:21:54.539Z,100.00
2023-04-27T19:24:21.481Z,100.00
2023-04-27T19:26:48.917Z,100.00
2023-04-27T19:29:17.077Z,100.00
2023-04-27T19:31:44.711Z,100.00
2023-04-27T19:34:11.651Z,100.00
2023-04-27T19:36:38.925Z,100.00
2023-04-27T19:39:06.486Z,100.00
2023-04-27T19:41:33.644Z,100.00
2023-04-27T19:44:01.225Z,100.00
2023-04-27T19:46:28.490Z,100.00
2023-04-27T19:49:00.163Z,100.00
2023-04-27T19:51:27.760Z,100.00
2023-04-27T19:53:54.774Z,100.00
2023-04-27T19:56:21.788Z,100.00
2023-04-27T19:58:48.690Z,100.00
2023-04-27T20:01:15.502Z,100.00
2023-04-27T20:03:42.570Z,100.00
2023-04-27T20:06:10.462Z,100.00
2023-04-27T20:08:37.458Z,100.00
2023-04-27T20:11:04.488Z,100.00
2023-04-27T20:13:31.659Z,100.00
2023-04-27T20:15:59.288Z,100.00
2023-04-27T20:18:26.044Z,100.00
2023-04-27T20:20:52.782Z,100.00
2023-04-27T20:23:19.705Z,100.00
2023-04-27T20:25:46.614Z,100.00
2023-04-27T20:28:13.409Z,100.00
2023-04-27T20:30:40.130Z,100.00
2023-04-27T20:33:07.299Z,100.00
2023-04-27T20:35:36.310Z,100.00
2023-04-27T20:38:03.050Z,100.00
2023-04-27T20:40:29.867Z,100.00
2023-04-27T20:42:56.565Z,100.00
2023-04-27T20:45:23.457Z,100.00
2023-04-27T20:47:50.228Z,100.00
2023-04-27T20:50:17.076Z,100.00
2023-04-27T20:52:44.022Z,100.00
2023-04-27T20:55:11.235Z,100.00
2023-04-27T20:57:38.045Z,100.00
2023-04-27T21:00:05.310Z,100.00
2023-04-27T21:02:32.127Z,100.00
2023-04-27T21:04:58.948Z,100.00
2023-04-27T21:07:25.672Z,100.00
2023-04-27T21:09:52.422Z,100.00
2023-04-27T21:12:19.234Z,100.00
2023-04-27T21:14:46.036Z,100.00
2023-04-27T21:17:15.340Z,100.00
2023-04-27T21:19:42.392Z,100.00
2023-04-27T21:22:09.170Z,100.00
2023-04-27T21:24:35.886Z,100.00
2023-04-27T21:27:02.745Z,100.00
2023-04-27T21:29:29.449Z,100.00
2023-04-27T21:31:56.353Z,100.00
2023-04-27T21:34:23.048Z,100.00
2023-04-27T21:36:49.780Z,100.00
2023-04-27T21:39:16.576Z,100.00
2023-04-27T21:41:43.326Z,100.00
2023-04-27T21:44:10.384Z,100.00
2023-04-27T21:46:37.537Z,100.00
2023-04-27T21:49:04.710Z,100.00
2023-04-27T21:51:34.973Z,100.00
2023-04-27T21:54:01.873Z,100.00
2023-04-27T21:56:28.817Z,100.00
2023-04-27T21:58:55.546Z,100.00
2023-04-27T22:01:27.065Z,100.00
2023-04-27T22:03:54.186Z,100.00
2023-04-27T22:06:21.072Z,100.00
2023-04-27T22:08:47.886Z,100.00
2023-04-27T22:11:14.607Z,100.00
2023-04-27T22:13:41.304Z,100.00
2023-04-27T22:16:08.131Z,100.00
2023-04-27T22:18:34.943Z,100.00
2023-04-27T22:21:01.718Z,100.00
2023-04-27T22:23:29.896Z,100.00
2023-04-27T22:25:56.629Z,100.00
2023-04-27T22:28:23.394Z,100.00
2023-04-27T22:30:50.187Z,100.00
2023-04-27T22:33:17.575Z,100.00
2023-04-27T22:35:44.689Z,100.00
2023-04-27T22:38:11.527Z,100.00
2023-04-27T22:40:38.431Z,100.00
2023-04-27T22:43:05.438Z,100.00
2023-04-27T22:45:32.378Z,100.00
2023-04-27T22:47:59.297Z,100.00
2023-04-27T22:50:26.957Z,100.00
2023-04-27T22:52:53.628Z,100.00
2023-04-27T22:55:20.711Z,100.00
2023-04-27T22:57:47.461Z,100.00
2023-04-27T23:03:33.278Z,100.00
2023-04-27T23:06:00.983Z,100.00
2023-04-27T23:08:28.990Z,100.00
2023-04-27T23:10:56.914Z,100.00
2023-04-27T23:13:29.819Z,100.00
2023-04-27T23:15:56.620Z,100.00
2023-04-27T23:18:23.320Z,100.00
2023-04-27T23:20:56.919Z,100.00
2023-04-27T23:23:23.698Z,100.00
2023-04-27T23:25:50.507Z,100.00
2023-04-27T23:28:17.348Z,100.00
2023-04-27T23:30:44.117Z,100.00
2023-04-27T23:33:10.859Z,100.00
2023-04-27T23:35:37.593Z,100.00
2023-04-27T23:38:04.377Z,100.00
2023-04-27T23:40:31.300Z,100.00
2023-04-27T23:42:58.142Z,100.00
2023-04-27T23:45:24.845Z,100.00
2023-04-27T23:47:52.042Z,100.00
2023-04-27T23:50:18.857Z,100.00
2023-04-27T23:52:45.606Z,100.00
2023-04-27T23:55:12.406Z,100.00
2023-04-27T23:57:39.136Z,100.00
